Time;durP1;ratioP1;P1;durP2;ratioP2;P2;SDS_P1;SDS_P2;PMS_P1;PMS_P2;Temp;Humidity;BMP_temperature;BMP_pressure;BME280_temperature;BME280_humidity;BME280_pressure;Samples;Min_cycle;Max_cycle;Signal;HPM_P1;HPM_P2
2023/07/24 00:00:46;;;;;;;3.90;3.60;;;22.20;99.90;;;;;;4939183;28;20879;-77
2023/07/24 00:03:13;;;;;;;4.40;3.70;;;22.20;99.90;;;;;;4940376;28;20500;-79
2023/07/24 00:05:40;;;;;;;2.83;2.63;;;22.20;99.90;;;;;;4939125;28;20483;-77
2023/07/24 00:08:07;;;;;;;3.20;2.90;;;22.30;99.90;;;;;;4939952;28;20552;-77
2023/07/24 00:10:34;;;;;;;3.83;3.17;;;22.30;99.90;;;;;;4939239;28;20504;-77
2023/07/24 00:13:04;;;;;;;3.93;3.63;;;22.30;99.90;;;;;;4939918;28;20489;-80
2023/07/24 00:15:31;;;;;;;3.23;3.03;;;22.30;99.90;;;;;;4939432;28;20558;-80
2023/07/24 00:17:58;;;;;;;3.53;3.23;;;22.30;99.90;;;;;;4938006;28;20484;-80
2023/07/24 00:20:26;;;;;;;3.30;3.10;;;22.30;99.90;;;;;;4938417;28;20495;-80
2023/07/24 00:22:53;;;;;;;3.23;2.90;;;22.20;99.90;;;;;;4939675;28;20520;-80
2023/07/24 00:25:19;;;;;;;3.90;3.20;;;22.20;99.90;;;;;;4938978;28;20511;-79
2023/07/24 00:27:46;;;;;;;3.50;3.20;;;22.20;99.90;;;;;;4939543;28;20581;-80
2023/07/24 00:30:15;;;;;;;3.17;2.93;;;22.20;99.90;;;;;;4939221;28;20471;-76
2023/07/24 00:32:42;;;;;;;4.07;3.53;;;22.20;99.90;;;;;;4939255;28;20552;-80
2023/07/24 00:35:09;;;;;;;3.80;3.43;;;22.20;99.90;;;;;;4939363;28;20480;-80
2023/07/24 00:37:36;;;;;;;3.60;3.30;;;22.20;99.90;;;;;;4938593;28;20539;-80
2023/07/24 00:40:04;;;;;;;2.67;2.47;;;22.20;99.90;;;;;;4939698;28;20902;-80
2023/07/24 00:42:31;;;;;;;4.03;3.47;;;22.20;99.90;;;;;;4938150;28;20477;-77
2023/07/24 00:44:59;;;;;;;3.90;3.43;;;22.10;99.90;;;;;;4939384;28;20480;-77
2023/07/24 00:47:28;;;;;;;2.97;2.77;;;22.20;99.90;;;;;;4938781;28;20507;-80
2023/07/24 00:49:56;;;;;;;3.30;3.00;;;22.20;99.90;;;;;;4939234;28;20500;-77
2023/07/24 00:52:23;;;;;;;3.83;3.40;;;22.20;99.90;;;;;;4938595;28;20544;-77
2023/07/24 00:54:54;;;;;;;3.57;3.30;;;22.20;99.90;;;;;;4939068;28;20492;-78
2023/07/24 00:57:21;;;;;;;4.27;2.93;;;22.10;99.90;;;;;;4938924;28;20490;-80
2023/07/24 00:59:48;;;;;;;3.43;3.13;;;22.10;99.90;;;;;;4938736;28;20492;-80
2023/07/24 01:02:15;;;;;;;4.40;3.10;;;22.10;99.90;;;;;;4938953;28;20567;-80
2023/07/24 01:04:43;;;;;;;3.83;3.07;;;22.10;99.90;;;;;;4938022;28;20516;-77
2023/07/24 01:07:10;;;;;;;3.00;2.80;;;22.10;99.90;;;;;;4938636;28;20469;-80
2023/07/24 01:09:39;;;;;;;2.87;2.67;;;22.10;99.90;;;;;;4938474;28;20555;-77
2023/07/24 01:12:20;;;;;;;2.83;2.60;;;22.10;99.90;;;;;;4939124;28;20906;-81
2023/07/24 01:14:51;;;;;;;3.80;2.83;;;22.10;99.90;;;;;;4937805;28;20475;-79
2023/07/24 01:17:24;;;;;;;3.90;3.20;;;22.10;99.90;;;;;;4938674;28;21038;-80
2023/07/24 01:19:56;;;;;;;3.20;2.90;;;22.10;99.90;;;;;;4937719;28;20469;-80
2023/07/24 01:22:33;;;;;;;2.60;2.40;;;22.10;99.90;;;;;;4938178;28;20469;-77
2023/07/24 01:25:06;;;;;;;5.40;3.33;;;22.10;99.90;;;;;;4938218;28;21315;-79
2023/07/24 01:27:35;;;;;;;3.50;3.20;;;22.10;99.90;;;;;;4938846;28;20465;-77
2023/07/24 01:30:02;;;;;;;3.20;2.90;;;22.10;99.90;;;;;;4938420;28;20472;-80
2023/07/24 01:32:29;;;;;;;3.03;2.77;;;22.10;99.90;;;;;;4938494;28;20951;-80
2023/07/24 01:34:56;;;;;;;3.97;3.30;;;22.10;99.90;;;;;;4937538;28;20567;-77
2023/07/24 01:37:25;;;;;;;3.50;3.07;;;22.00;99.90;;;;;;4938172;28;21034;-80
2023/07/24 01:39:53;;;;;;;3.40;3.10;;;22.00;99.90;;;;;;4937311;28;20496;-77
2023/07/24 01:42:21;;;;;;;4.40;3.10;;;22.00;99.90;;;;;;4938073;28;20500;-77
2023/07/24 01:44:53;;;;;;;3.30;2.83;;;22.00;99.90;;;;;;4937631;28;20485;-77
2023/07/24 01:47:20;;;;;;;3.13;2.93;;;22.00;99.90;;;;;;4938331;28;20470;-79
2023/07/24 01:49:47;;;;;;;2.70;2.50;;;22.00;99.90;;;;;;4938274;28;20978;-79
2023/07/24 01:52:14;;;;;;;3.10;2.77;;;22.00;99.90;;;;;;4938342;28;20544;-77
2023/07/24 01:54:42;;;;;;;2.90;2.70;;;22.00;99.90;;;;;;4937290;28;20508;-79
2023/07/24 01:57:09;;;;;;;2.60;2.40;;;22.00;99.90;;;;;;4938382;28;20571;-80
2023/07/24 01:59:36;;;;;;;3.40;3.10;;;22.00;99.90;;;;;;4938094;28;20480;-80
2023/07/24 02:02:05;;;;;;;5.83;2.60;;;22.00;99.90;;;;;;4937831;28;20481;-77
2023/07/24 02:04:32;;;;;;;3.57;2.97;;;22.00;99.90;;;;;;4937803;28;20479;-80
2023/07/24 02:06:58;;;;;;;3.83;2.87;;;22.00;99.90;;;;;;4937451;28;20575;-80
2023/07/24 02:09:25;;;;;;;3.10;2.80;;;22.00;99.90;;;;;;4938354;28;20484;-78
2023/07/24 02:11:52;;;;;;;2.60;2.40;;;22.00;99.90;;;;;;4938328;28;20509;-81
2023/07/24 02:14:21;;;;;;;3.60;3.30;;;22.00;99.90;;;;;;4938233;28;20476;-77
2023/07/24 02:16:48;;;;;;;5.33;2.93;;;22.00;99.90;;;;;;4937131;28;20472;-78
2023/07/24 02:19:17;;;;;;;2.93;2.73;;;21.90;99.90;;;;;;4938679;28;20460;-80
2023/07/24 02:21:44;;;;;;;2.63;2.43;;;22.00;99.90;;;;;;4936261;28;20476;-77
2023/07/24 02:24:14;;;;;;;5.40;3.43;;;22.00;99.90;;;;;;4938298;28;20808;-79
2023/07/24 02:26:41;;;;;;;3.33;3.03;;;22.00;99.90;;;;;;4938033;28;20476;-79
2023/07/24 02:29:08;;;;;;;3.27;3.07;;;22.00;99.90;;;;;;4938111;28;20535;-79
2023/07/24 02:31:35;;;;;;;3.10;2.90;;;22.00;99.90;;;;;;4938209;28;20552;-77
2023/07/24 02:34:02;;;;;;;3.20;3.00;;;22.10;99.90;;;;;;4936836;28;20481;-77
2023/07/24 02:36:30;;;;;;;3.87;3.50;;;22.10;99.90;;;;;;4937557;28;20516;-77
2023/07/24 02:38:57;;;;;;;3.47;3.07;;;22.00;99.90;;;;;;4937339;28;20500;-77
2023/07/24 02:41:24;;;;;;;3.93;3.37;;;22.10;99.90;;;;;;4937631;28;20561;-79
2023/07/24 02:43:51;;;;;;;3.40;3.10;;;22.10;99.90;;;;;;4941032;28;20481;-77
2023/07/24 02:46:18;;;;;;;4.67;2.80;;;22.10;99.90;;;;;;4941560;28;20460;-77
2023/07/24 02:48:45;;;;;;;4.93;3.37;;;22.10;99.90;;;;;;4937743;28;20540;-79
2023/07/24 02:51:12;;;;;;;3.23;2.70;;;22.00;99.90;;;;;;4937537;28;20476;-77
2023/07/24 02:53:40;;;;;;;4.70;2.73;;;22.00;99.90;;;;;;4937405;28;20605;-77
2023/07/24 02:56:07;;;;;;;3.27;3.07;;;22.00;99.90;;;;;;4937263;28;20776;-79
2023/07/24 02:58:34;;;;;;;3.00;2.80;;;22.00;99.90;;;;;;4937460;28;20487;-79
2023/07/24 03:01:15;;;;;;;2.77;2.57;;;22.00;99.90;;;;;;4936966;28;20567;-76
2023/07/24 03:03:42;;;;;;;2.53;2.33;;;22.00;99.90;;;;;;4937640;28;20485;-76
2023/07/24 03:06:09;;;;;;;3.13;2.83;;;21.90;99.90;;;;;;4937612;28;20556;-76
2023/07/24 03:08:36;;;;;;;2.63;2.43;;;22.00;99.90;;;;;;4937383;28;20584;-76
2023/07/24 03:11:07;;;;;;;4.43;2.53;;;21.90;99.90;;;;;;4938351;28;20473;-77
2023/07/24 03:13:34;;;;;;;3.10;2.73;;;21.90;99.90;;;;;;4936854;28;20473;-76
2023/07/24 03:16:04;;;;;;;3.43;2.50;;;21.90;99.90;;;;;;4936363;28;20477;-76
2023/07/24 03:18:31;;;;;;;3.30;3.00;;;22.00;99.90;;;;;;4937979;28;20476;-76
2023/07/24 03:20:59;;;;;;;2.40;2.20;;;22.00;99.90;;;;;;4937743;28;20583;-78
2023/07/24 03:23:26;;;;;;;2.93;2.63;;;22.00;99.90;;;;;;4936995;28;20488;-76
2023/07/24 03:25:53;;;;;;;2.83;2.57;;;22.00;99.90;;;;;;4935783;28;20571;-76
2023/07/24 03:28:21;;;;;;;2.60;2.40;;;22.00;99.90;;;;;;4937435;28;20880;-78
2023/07/24 03:30:48;;;;;;;2.87;2.57;;;22.00;99.90;;;;;;4936528;28;20870;-79
2023/07/24 03:33:15;;;;;;;2.73;2.17;;;21.90;99.90;;;;;;4936673;28;20542;-79
2023/07/24 03:35:42;;;;;;;2.97;2.67;;;21.90;99.90;;;;;;4936461;28;20563;-76
2023/07/24 03:38:09;;;;;;;3.17;2.23;;;21.90;99.90;;;;;;4936110;28;20548;-76
2023/07/24 03:40:36;;;;;;;2.73;2.47;;;22.00;99.90;;;;;;4937052;28;20690;-76
2023/07/24 03:43:05;;;;;;;3.03;2.37;;;22.00;99.90;;;;;;4935895;28;20528;-80
2023/07/24 03:45:33;;;;;;;2.80;2.57;;;22.00;99.90;;;;;;4936595;28;20500;-78
2023/07/24 03:48:00;;;;;;;3.40;2.47;;;22.00;99.90;;;;;;4936508;28;20568;-81
2023/07/24 03:50:27;;;;;;;2.80;2.60;;;21.90;99.90;;;;;;4936726;28;20465;-80
2023/07/24 03:52:54;;;;;;;2.80;2.60;;;21.90;99.90;;;;;;4936190;28;20552;-80
2023/07/24 03:55:21;;;;;;;2.70;2.50;;;21.90;99.90;;;;;;4936129;28;20487;-77
2023/07/24 03:57:48;;;;;;;4.73;2.57;;;21.90;99.90;;;;;;4936583;28;20476;-78
2023/07/24 04:00:15;;;;;;;2.20;2.10;;;21.80;99.90;;;;;;4935939;28;21003;-80
2023/07/24 04:02:44;;;;;;;2.17;2.00;;;21.90;99.90;;;;;;4936593;28;20568;-78
2023/07/24 04:05:11;;;;;;;2.90;2.17;;;21.90;99.90;;;;;;4935780;28;20579;-78
2023/07/24 04:07:38;;;;;;;3.13;2.03;;;21.90;99.90;;;;;;4937173;28;20472;-81
2023/07/24 04:10:07;;;;;;;2.20;2.00;;;21.80;99.90;;;;;;4936496;28;20500;-77
2023/07/24 04:12:34;;;;;;;3.00;2.17;;;21.80;99.90;;;;;;4943523;28;20480;-78
2023/07/24 04:15:00;;;;;;;2.73;2.50;;;21.70;99.90;;;;;;4936670;28;20476;-80
2023/07/24 04:17:27;;;;;;;2.27;2.07;;;21.70;99.90;;;;;;4936574;28;20873;-78
2023/07/24 04:19:56;;;;;;;1.70;1.60;;;21.70;99.90;;;;;;4936634;28;20915;-80
2023/07/24 04:22:23;;;;;;;2.27;2.07;;;21.70;99.90;;;;;;4936942;28;21633;-79
2023/07/24 04:24:50;;;;;;;2.20;2.00;;;21.70;99.90;;;;;;4938696;28;20491;-76
2023/07/24 04:27:17;;;;;;;2.30;2.10;;;21.70;99.90;;;;;;4936483;28;20485;-80
2023/07/24 04:29:44;;;;;;;2.47;2.27;;;21.70;99.90;;;;;;4936334;28;20563;-78
2023/07/24 04:32:11;;;;;;;2.50;2.30;;;21.70;99.90;;;;;;4936105;28;20480;-78
2023/07/24 04:34:38;;;;;;;1.93;1.83;;;21.80;99.90;;;;;;4936596;28;20480;-78
2023/07/24 04:37:06;;;;;;;2.20;2.07;;;21.80;99.90;;;;;;4937400;28;20864;-77
2023/07/24 04:39:34;;;;;;;2.23;2.03;;;21.80;99.90;;;;;;4939012;28;20859;-78
2023/07/24 04:42:01;;;;;;;2.00;1.90;;;21.80;99.90;;;;;;4936638;28;20967;-80
2023/07/24 04:44:31;;;;;;;2.03;1.87;;;21.80;99.90;;;;;;4939385;28;20507;-77
2023/07/24 04:46:58;;;;;;;1.70;1.60;;;21.80;99.90;;;;;;4939011;28;20548;-77
2023/07/24 04:49:25;;;;;;;2.13;1.90;;;21.80;99.90;;;;;;4938925;28;20476;-80
2023/07/24 04:51:52;;;;;;;1.93;1.53;;;21.80;99.90;;;;;;4939498;28;20545;-79
2023/07/24 04:54:21;;;;;;;2.13;1.80;;;21.80;99.90;;;;;;4937567;28;20496;-77
2023/07/24 04:56:48;;;;;;;2.20;2.10;;;21.90;99.90;;;;;;4939940;28;20855;-78
2023/07/24 04:59:15;;;;;;;2.13;2.03;;;22.00;99.90;;;;;;4938991;28;20486;-80
2023/07/24 05:01:42;;;;;;;1.83;1.73;;;22.00;99.90;;;;;;4938339;28;20480;-81
2023/07/24 05:04:10;;;;;;;1.93;1.80;;;22.00;99.90;;;;;;4938461;28;20512;-80
2023/07/24 05:06:38;;;;;;;2.50;2.30;;;22.00;99.90;;;;;;4938163;28;20480;-77
2023/07/24 05:09:05;;;;;;;1.70;1.60;;;22.10;99.90;;;;;;4938641;28;20479;-81
2023/07/24 05:11:33;;;;;;;1.50;1.40;;;22.10;99.90;;;;;;4938530;28;20469;-80
2023/07/24 05:14:02;;;;;;;1.80;1.70;;;22.10;99.90;;;;;;4938746;28;20564;-80
2023/07/24 05:16:29;;;;;;;1.70;1.60;;;22.20;99.90;;;;;;4937856;28;20461;-76
2023/07/24 05:18:56;;;;;;;1.83;1.70;;;22.20;99.90;;;;;;4939058;28;20538;-79
2023/07/24 05:21:24;;;;;;;3.30;1.90;;;22.20;99.90;;;;;;4937938;28;20477;-79
2023/07/24 05:23:51;;;;;;;1.87;1.77;;;22.30;99.90;;;;;;4938565;28;20476;-80
2023/07/24 05:26:18;;;;;;;3.00;2.80;;;22.30;99.90;;;;;;4938551;28;20516;-76
2023/07/24 05:28:47;;;;;;;3.47;2.20;;;22.40;99.90;;;;;;4938865;28;20477;-77
2023/07/24 05:31:13;;;;;;;2.23;1.70;;;22.50;99.90;;;;;;4938179;28;20477;-81
2023/07/24 05:33:40;;;;;;;1.83;1.73;;;22.60;99.90;;;;;;4938908;28;20545;-80
2023/07/24 05:36:07;;;;;;;2.27;2.07;;;22.60;99.90;;;;;;4944444;28;20515;-80
2023/07/24 05:38:34;;;;;;;1.80;1.70;;;22.70;99.90;;;;;;4937744;28;20471;-80
2023/07/24 05:41:04;;;;;;;1.67;1.57;;;22.70;99.90;;;;;;4938442;28;20501;-80
2023/07/24 05:43:32;;;;;;;2.37;2.13;;;22.80;99.90;;;;;;4937373;28;20532;-76
2023/07/24 05:46:00;;;;;;;3.90;1.93;;;22.80;99.90;;;;;;4937679;28;20564;-76
2023/07/24 05:48:27;;;;;;;1.47;1.37;;;22.80;99.90;;;;;;4937648;28;20524;-78
2023/07/24 05:50:57;;;;;;;1.90;1.70;;;22.90;99.90;;;;;;4938186;28;20540;-80
2023/07/24 05:53:25;;;;;;;2.00;1.67;;;22.90;99.90;;;;;;4935918;28;20468;-82
2023/07/24 05:55:58;;;;;;;3.03;1.70;;;23.00;99.90;;;;;;4938080;28;20955;-76
2023/07/24 05:58:25;;;;;;;1.97;1.87;;;23.00;99.90;;;;;;4937146;28;20480;-77
2023/07/24 06:00:52;;;;;;;2.23;2.00;;;23.10;99.90;;;;;;4937892;28;20528;-77
2023/07/24 06:03:21;;;;;;;1.87;1.77;;;23.10;99.90;;;;;;4937319;28;20476;-77
2023/07/24 06:05:51;;;;;;;1.90;1.80;;;23.20;99.90;;;;;;4937645;28;20508;-77
2023/07/24 06:08:18;;;;;;;1.83;1.73;;;23.30;99.90;;;;;;4937444;28;20468;-77
2023/07/24 06:10:46;;;;;;;1.60;1.50;;;23.40;99.90;;;;;;4937968;28;20500;-77
2023/07/24 06:13:15;;;;;;;1.70;1.60;;;23.40;99.90;;;;;;4937200;28;20491;-80
2023/07/24 06:15:42;;;;;;;4.13;1.97;;;23.40;99.90;;;;;;4937750;28;20487;-80
2023/07/24 06:18:09;;;;;;;1.53;1.43;;;23.50;99.90;;;;;;4937719;28;20811;-80
2023/07/24 06:20:37;;;;;;;2.30;1.73;;;23.50;99.90;;;;;;4936685;28;20473;-80
2023/07/24 06:23:04;;;;;;;1.97;1.87;;;23.50;99.90;;;;;;4937284;28;20471;-79
2023/07/24 06:25:31;;;;;;;2.37;2.17;;;23.60;99.90;;;;;;4936892;28;20476;-79
2023/07/24 06:27:59;;;;;;;2.63;2.27;;;23.70;99.90;;;;;;4937586;28;20811;-79
2023/07/24 06:30:26;;;;;;;2.10;1.90;;;23.70;99.90;;;;;;4936545;28;21026;-76
2023/07/24 06:36:00;;;;;;;2.73;2.13;;;23.90;99.90;;;;;;4935813;28;20958;-77
2023/07/24 06:38:26;;;;;;;4.43;4.03;;;23.90;99.90;;;;;;4936535;28;20468;-77
2023/07/24 06:40:53;;;;;;;3.37;3.10;;;24.00;99.90;;;;;;4937383;28;20598;-80
2023/07/24 06:43:21;;;;;;;2.50;2.30;;;24.10;99.90;;;;;;4936859;28;20548;-80
2023/07/24 06:45:50;;;;;;;3.23;2.47;;;24.20;99.90;;;;;;4937037;28;20889;-80
2023/07/24 06:48:20;;;;;;;3.13;2.93;;;24.30;99.90;;;;;;4936393;28;20472;-77
2023/07/24 06:50:48;;;;;;;3.37;3.10;;;24.50;99.90;;;;;;4937025;28;20473;-77
2023/07/24 06:53:16;;;;;;;3.33;3.03;;;24.60;99.90;;;;;;4936448;28;20993;-77
2023/07/24 06:55:44;;;;;;;3.90;3.40;;;24.80;99.90;;;;;;4937190;28;20559;-78
2023/07/24 06:58:10;;;;;;;2.93;2.63;;;24.90;99.90;;;;;;4936375;28;20476;-80
2023/07/24 07:00:37;;;;;;;2.37;2.23;;;25.00;99.90;;;;;;4937138;28;20473;-80
2023/07/24 07:03:04;;;;;;;3.10;2.80;;;25.10;99.90;;;;;;4936905;28;20493;-77
2023/07/24 07:05:33;;;;;;;2.37;2.10;;;25.30;99.90;;;;;;4936074;28;20555;-80
2023/07/24 07:08:00;;;;;;;2.53;2.33;;;25.40;99.90;;;;;;4936863;28;21000;-81
2023/07/24 07:10:28;;;;;;;4.50;3.40;;;25.50;99.90;;;;;;4936341;28;20810;-80
2023/07/24 07:12:56;;;;;;;4.23;2.93;;;25.60;99.90;;;;;;4936880;28;20473;-80
2023/07/24 07:15:23;;;;;;;3.27;2.80;;;25.70;99.90;;;;;;4936089;28;20975;-80
2023/07/24 07:17:50;;;;;;;2.50;2.30;;;25.80;99.90;;;;;;4935844;28;20551;-76
2023/07/24 07:20:19;;;;;;;2.50;2.30;;;25.90;99.90;;;;;;4936126;28;20571;-77
2023/07/24 07:22:46;;;;;;;4.53;3.13;;;26.00;99.90;;;;;;4936216;28;20477;-77
2023/07/24 07:25:15;;;;;;;2.67;2.47;;;26.00;99.90;;;;;;4936140;28;20519;-80
2023/07/24 07:27:44;;;;;;;3.43;3.23;;;25.90;99.90;;;;;;4936674;28;20472;-76
2023/07/24 07:30:12;;;;;;;3.70;3.40;;;26.00;99.90;;;;;;4936295;28;20504;-80
2023/07/24 07:32:45;;;;;;;3.73;3.30;;;26.20;99.90;;;;;;4935489;28;20478;-76
2023/07/24 07:35:12;;;;;;;4.03;2.70;;;26.20;99.90;;;;;;4936538;28;20487;-76
2023/07/24 07:37:39;;;;;;;2.50;2.30;;;26.30;99.90;;;;;;4935745;28;20464;-80
2023/07/24 07:40:07;;;;;;;2.70;2.50;;;26.40;99.90;;;;;;4936231;28;20548;-81
2023/07/24 07:42:34;;;;;;;3.27;2.10;;;26.60;99.90;;;;;;4936226;28;20479;-80
2023/07/24 07:45:03;;;;;;;2.60;2.40;;;26.60;99.90;;;;;;4936607;28;20473;-77
2023/07/24 07:47:33;;;;;;;3.30;2.63;;;26.70;99.90;;;;;;4935580;28;20500;-77
2023/07/24 07:50:00;;;;;;;2.60;2.40;;;26.80;99.90;;;;;;4936334;28;20508;-78
2023/07/24 07:52:52;;;;;;;2.33;2.23;;;26.90;99.90;;;;;;4935667;28;20473;-79
2023/07/24 07:55:20;;;;;;;3.37;3.07;;;26.90;99.90;;;;;;4935620;28;20535;-77
2023/07/24 07:57:47;;;;;;;3.37;3.10;;;27.00;99.90;;;;;;4936171;28;20475;-77
2023/07/24 08:00:16;;;;;;;3.13;2.47;;;26.90;99.90;;;;;;4935745;28;20982;-78
2023/07/24 08:02:43;;;;;;;3.07;2.50;;;26.90;99.90;;;;;;4936236;28;20493;-76
2023/07/24 08:05:11;;;;;;;2.77;2.57;;;26.90;99.90;;;;;;4935809;28;20484;-78
2023/07/24 08:07:38;;;;;;;2.67;2.47;;;27.00;99.90;;;;;;4935462;28;20869;-83
2023/07/24 08:10:06;;;;;;;2.90;2.63;;;27.00;99.90;;;;;;4936552;28;20561;-80
2023/07/24 08:12:35;;;;;;;2.40;2.20;;;27.10;99.90;;;;;;4936109;28;20510;-78
2023/07/24 08:15:02;;;;;;;2.83;2.63;;;27.20;99.90;;;;;;4935776;28;20502;-77
2023/07/24 08:17:31;;;;;;;2.60;2.40;;;27.20;99.90;;;;;;4937391;28;20542;-77
2023/07/24 08:19:58;;;;;;;3.07;2.87;;;27.20;99.70;;;;;;4939723;28;21078;-76
2023/07/24 08:22:25;;;;;;;2.10;2.00;;;27.30;99.50;;;;;;4939868;28;20478;-81
2023/07/24 08:24:52;;;;;;;2.90;2.70;;;27.20;99.30;;;;;;4940079;28;20555;-78
2023/07/24 08:27:19;;;;;;;2.73;2.47;;;27.30;99.40;;;;;;4939558;28;20501;-77
2023/07/24 08:29:46;;;;;;;2.77;2.57;;;27.40;98.90;;;;;;4939253;28;20465;-78
2023/07/24 08:32:13;;;;;;;3.33;2.67;;;27.30;99.10;;;;;;4939927;28;20497;-81
2023/07/24 08:34:41;;;;;;;4.07;2.80;;;27.40;99.20;;;;;;4939671;28;20793;-81
2023/07/24 08:37:08;;;;;;;3.70;3.40;;;27.50;99.00;;;;;;4939471;28;20538;-78
2023/07/24 08:39:35;;;;;;;4.20;3.50;;;27.60;98.60;;;;;;4938010;28;20564;-77
2023/07/24 08:42:09;;;;;;;2.47;2.27;;;27.50;98.10;;;;;;4939310;28;20549;-78
2023/07/24 08:44:38;;;;;;;2.40;2.20;;;27.50;97.60;;;;;;4938900;28;20476;-78
2023/07/24 08:47:10;;;;;;;3.20;3.00;;;27.40;97.70;;;;;;4939512;28;20474;-77
2023/07/24 08:49:39;;;;;;;3.00;2.80;;;27.40;97.80;;;;;;4940099;28;20874;-80
2023/07/24 08:52:08;;;;;;;2.43;2.23;;;27.40;98.10;;;;;;4939565;28;20470;-78
2023/07/24 08:54:37;;;;;;;4.40;3.50;;;27.40;98.20;;;;;;4938676;28;20477;-78
2023/07/24 08:57:07;;;;;;;2.90;2.70;;;27.40;98.40;;;;;;4938920;28;20987;-77
2023/07/24 08:59:34;;;;;;;3.23;2.30;;;27.40;98.20;;;;;;4938440;28;20476;-80
2023/07/24 09:02:05;;;;;;;3.00;2.00;;;27.40;98.20;;;;;;4939037;28;21008;-79
2023/07/24 09:04:32;;;;;;;4.87;2.53;;;27.30;98.10;;;;;;4938059;28;20565;-78
2023/07/24 09:06:59;;;;;;;2.73;1.90;;;27.30;97.10;;;;;;4939337;28;20465;-80
2023/07/24 09:09:31;;;;;;;2.63;2.43;;;27.30;97.10;;;;;;4938533;28;20478;-80
2023/07/24 09:12:01;;;;;;;2.00;1.90;;;27.40;97.20;;;;;;4938920;28;20466;-79
2023/07/24 09:14:30;;;;;;;3.47;2.77;;;27.40;97.20;;;;;;4941176;28;20477;-79
2023/07/24 09:17:05;;;;;;;2.53;2.23;;;27.40;97.30;;;;;;4938513;28;20477;-77
2023/07/24 09:19:32;;;;;;;2.60;2.40;;;27.40;97.20;;;;;;4932519;28;20509;-77
2023/07/24 09:22:10;;;;;;;3.40;2.80;;;27.50;97.20;;;;;;4938755;28;20475;-80
2023/07/24 09:24:39;;;;;;;2.03;1.93;;;27.50;97.30;;;;;;4938150;28;20515;-80
2023/07/24 09:27:07;;;;;;;2.17;2.07;;;27.60;97.40;;;;;;4938909;28;20869;-79
2023/07/24 09:29:37;;;;;;;2.70;2.23;;;27.60;97.30;;;;;;4930623;28;20485;-80
2023/07/24 09:32:05;;;;;;;2.13;2.03;;;27.60;97.30;;;;;;4938036;28;20478;-80
2023/07/24 09:34:34;;;;;;;3.10;2.00;;;27.60;97.60;;;;;;4938241;28;20876;-77
2023/07/24 09:37:01;;;;;;;4.23;1.97;;;27.60;97.30;;;;;;4938519;28;20510;-77
2023/07/24 09:39:28;;;;;;;2.20;1.80;;;27.60;97.10;;;;;;4937941;28;20507;-77
2023/07/24 09:42:11;;;;;;;2.23;2.03;;;27.60;96.20;;;;;;4937928;28;20483;-76
2023/07/24 09:44:39;;;;;;;5.03;2.53;;;27.70;96.30;;;;;;4937840;28;20488;-77
2023/07/24 09:47:07;;;;;;;2.67;2.13;;;27.70;96.50;;;;;;4937864;28;20561;-77
2023/07/24 09:49:34;;;;;;;2.33;2.13;;;27.70;96.20;;;;;;4936687;28;20550;-77
2023/07/24 09:52:07;;;;;;;3.10;2.50;;;27.80;96.20;;;;;;4937858;28;20553;-77
2023/07/24 09:54:46;;;;;;;4.03;3.43;;;27.80;95.90;;;;;;4936471;28;20547;-76
2023/07/24 09:57:18;;;;;;;5.63;3.23;;;27.90;96.00;;;;;;4937379;28;20475;-77
2023/07/24 09:59:46;;;;;;;3.17;2.80;;;27.90;96.10;;;;;;4937488;28;20475;-77
2023/07/24 10:02:14;;;;;;;2.60;2.37;;;27.90;96.10;;;;;;4938342;28;20552;-77
2023/07/24 10:04:42;;;;;;;3.00;2.50;;;27.90;95.40;;;;;;4937527;28;20540;-77
2023/07/24 10:07:10;;;;;;;2.90;2.03;;;27.90;95.30;;;;;;4938091;28;21173;-79
2023/07/24 10:09:37;;;;;;;3.27;2.73;;;27.80;94.90;;;;;;4937323;28;20483;-79
2023/07/24 10:12:05;;;;;;;4.00;2.77;;;27.90;95.10;;;;;;4937615;28;20479;-77
2023/07/24 10:14:35;;;;;;;5.33;2.87;;;27.90;95.00;;;;;;4937001;28;21008;-79
2023/07/24 10:17:02;;;;;;;3.60;3.00;;;27.90;94.70;;;;;;4937737;28;20528;-79
2023/07/24 10:19:38;;;;;;;3.20;3.00;;;27.90;94.70;;;;;;4937322;28;20819;-80
2023/07/24 10:22:05;;;;;;;3.10;2.80;;;28.00;94.70;;;;;;4938019;28;20475;-80
2023/07/24 10:24:34;;;;;;;3.10;2.80;;;27.90;94.50;;;;;;4936574;28;20480;-79
2023/07/24 10:27:01;;;;;;;5.83;3.03;;;28.00;94.40;;;;;;4937915;28;20566;-80
2023/07/24 10:29:28;;;;;;;4.53;3.47;;;28.00;93.80;;;;;;4937684;28;20815;-80
2023/07/24 10:31:56;;;;;;;2.80;2.60;;;28.10;94.00;;;;;;4937814;28;20471;-79
2023/07/24 10:34:23;;;;;;;3.70;3.40;;;28.00;94.00;;;;;;4937574;28;20492;-80
2023/07/24 10:36:50;;;;;;;4.30;3.90;;;28.00;93.80;;;;;;4937136;28;20561;-78
2023/07/24 10:39:20;;;;;;;3.70;3.27;;;28.10;93.80;;;;;;4936545;28;20504;-77
2023/07/24 10:41:47;;;;;;;3.60;3.30;;;28.20;93.70;;;;;;4936418;28;20467;-78
2023/07/24 10:44:14;;;;;;;4.20;3.80;;;28.30;93.50;;;;;;4936910;28;20480;-78
2023/07/24 10:46:43;;;;;;;3.77;3.43;;;28.30;93.40;;;;;;4936518;28;20534;-78
2023/07/24 10:49:12;;;;;;;3.47;3.00;;;28.20;92.90;;;;;;4937051;28;20487;-78
2023/07/24 10:51:39;;;;;;;4.50;4.10;;;28.20;92.40;;;;;;4935990;28;20487;-77
2023/07/24 10:54:06;;;;;;;6.30;4.10;;;28.30;92.50;;;;;;4936741;28;20469;-78
2023/07/24 10:56:33;;;;;;;3.90;3.60;;;28.30;92.60;;;;;;4936764;28;20554;-78
2023/07/24 10:59:04;;;;;;;3.60;3.40;;;28.40;92.70;;;;;;4937085;28;20540;-78
2023/07/24 11:01:33;;;;;;;5.13;3.67;;;28.50;92.50;;;;;;4936386;28;20479;-78
2023/07/24 11:04:04;;;;;;;4.10;3.70;;;28.50;92.50;;;;;;4936651;28;20487;-81
2023/07/24 11:06:32;;;;;;;6.37;3.77;;;28.50;92.20;;;;;;4936276;28;20810;-80
2023/07/24 11:09:01;;;;;;;5.77;5.17;;;28.60;92.20;;;;;;4936623;28;20470;-78
2023/07/24 11:11:31;;;;;;;4.87;4.30;;;28.60;91.30;;;;;;4937085;28;20485;-78
2023/07/24 11:13:59;;;;;;;4.73;4.33;;;28.60;90.40;;;;;;4936439;28;21265;-80
2023/07/24 11:16:27;;;;;;;4.80;4.40;;;28.60;90.30;;;;;;4936584;28;20476;-80
2023/07/24 11:18:55;;;;;;;4.70;4.00;;;28.60;90.20;;;;;;4936736;28;20531;-81
2023/07/24 11:21:25;;;;;;;4.20;3.87;;;28.70;90.10;;;;;;4937275;28;20469;-81
2023/07/24 11:23:56;;;;;;;4.47;4.07;;;28.60;88.30;;;;;;4942846;28;20480;-81
2023/07/24 11:26:27;;;;;;;3.77;3.47;;;28.50;88.30;;;;;;4937803;28;20480;-80
2023/07/24 11:28:55;;;;;;;3.87;3.50;;;28.50;88.10;;;;;;4937676;28;20480;-81
2023/07/24 11:31:25;;;;;;;6.00;5.40;;;28.30;87.80;;;;;;4940802;28;20507;-77
2023/07/24 11:33:54;;;;;;;5.07;4.60;;;28.30;88.50;;;;;;4936319;28;20488;-81
2023/07/24 11:36:21;;;;;;;6.43;4.70;;;28.30;88.30;;;;;;4936277;28;20476;-78
2023/07/24 11:38:49;;;;;;;4.17;3.77;;;28.30;89.10;;;;;;4935872;28;20472;-78
2023/07/24 11:41:18;;;;;;;3.93;3.63;;;28.30;89.20;;;;;;4936885;28;20463;-78
2023/07/24 11:43:50;;;;;;;4.13;3.63;;;28.30;89.50;;;;;;4940168;28;20488;-81
2023/07/24 11:46:27;;;;;;;6.70;4.63;;;28.30;89.60;;;;;;4937586;28;20474;-78
2023/07/24 11:48:56;;;;;;;4.57;4.20;;;28.20;88.80;;;;;;4936027;28;20617;-78
2023/07/24 11:51:24;;;;;;;8.13;4.30;;;28.30;88.90;;;;;;4939412;28;20488;-77
2023/07/24 11:53:52;;;;;;;4.03;3.70;;;28.20;88.10;;;;;;4941567;28;20546;-77
2023/07/24 11:56:21;;;;;;;7.63;6.37;;;28.20;88.60;;;;;;4943197;28;20467;-77
2023/07/24 11:58:48;;;;;;;8.40;5.33;;;28.30;89.10;;;;;;4942656;28;20474;-77
2023/07/24 12:01:16;;;;;;;6.10;4.90;;;28.30;89.00;;;;;;4942564;28;20480;-76
2023/07/24 12:03:43;;;;;;;5.40;4.90;;;28.30;88.00;;;;;;4942598;28;20537;-80
2023/07/24 12:06:15;;;;;;;5.50;4.40;;;28.20;87.40;;;;;;4942941;28;21009;-77
2023/07/24 12:08:42;;;;;;;5.50;4.70;;;28.20;87.50;;;;;;4942039;28;20810;-79
2023/07/24 12:11:18;;;;;;;5.30;4.80;;;28.20;87.50;;;;;;4942823;28;20569;-80
2023/07/24 12:13:46;;;;;;;5.33;4.33;;;28.20;88.30;;;;;;4943027;28;20472;-82
2023/07/24 12:16:13;;;;;;;5.97;4.23;;;28.00;88.20;;;;;;4942907;28;20468;-80
2023/07/24 12:18:40;;;;;;;8.83;5.53;;;27.90;87.90;;;;;;4942961;28;20480;-81
2023/07/24 12:21:07;;;;;;;8.47;5.20;;;27.90;88.50;;;;;;4941353;28;20529;-77
2023/07/24 12:23:34;;;;;;;8.77;4.33;;;27.90;91.80;;;;;;4941859;28;21042;-81
2023/07/24 12:26:01;;;;;;;7.03;4.97;;;27.80;93.80;;;;;;4941538;28;20483;-80
2023/07/24 12:28:29;;;;;;;5.97;4.63;;;27.70;96.10;;;;;;4942497;28;20980;-81
2023/07/24 12:30:57;;;;;;;6.00;5.30;;;27.40;97.50;;;;;;4941783;28;20472;-78
2023/07/24 12:33:24;;;;;;;5.27;4.77;;;27.30;98.30;;;;;;4942290;28;20475;-78
2023/07/24 12:35:51;;;;;;;8.43;5.10;;;27.10;99.60;;;;;;4942062;28;20489;-76
2023/07/24 12:38:18;;;;;;;7.67;5.47;;;26.90;99.90;;;;;;4942281;28;20507;-77
2023/07/24 12:40:45;;;;;;;7.27;4.93;;;26.70;99.90;;;;;;4941327;28;20487;-77
2023/07/24 12:43:12;;;;;;;5.83;4.40;;;26.50;99.90;;;;;;4942436;28;20560;-78
2023/07/24 12:45:39;;;;;;;8.07;5.80;;;26.30;99.90;;;;;;4942271;28;20476;-80
2023/07/24 12:48:07;;;;;;;5.40;4.90;;;26.10;99.90;;;;;;4941639;28;20478;-81
2023/07/24 12:50:35;;;;;;;4.50;4.10;;;26.00;99.90;;;;;;4941978;28;20989;-77
2023/07/24 12:53:02;;;;;;;4.40;3.90;;;25.90;99.90;;;;;;4941399;28;20821;-77
2023/07/24 12:55:30;;;;;;;5.87;4.90;;;25.90;99.90;;;;;;4942249;28;21017;-80